createdAt,value
2018-03-11T00:01:20.672Z,55.25
2018-03-11T00:03:49.954Z,55.47
2018-03-11T00:06:19.096Z,55.60
2018-03-11T00:08:48.120Z,56.21
2018-03-11T00:11:17.003Z,56.61
2018-03-11T00:13:46.154Z,56.97
2018-03-11T00:16:15.163Z,57.12
2018-03-11T00:18:44.386Z,57.36
2018-03-11T00:21:13.412Z,56.81
2018-03-11T00:23:42.655Z,56.57
2018-03-11T00:26:12.639Z,56.87
2018-03-11T00:28:41.761Z,56.38
2018-03-11T00:31:10.786Z,56.18
2018-03-11T00:33:39.777Z,56.12
2018-03-11T00:36:08.780Z,56.18
2018-03-11T00:38:37.836Z,56.26
2018-03-11T00:41:07.436Z,55.67
2018-03-11T00:43:36.463Z,56.01
2018-03-11T00:46:05.876Z,56.38
2018-03-11T00:48:34.915Z,56.12
2018-03-11T00:51:04.136Z,56.43
2018-03-11T00:53:33.110Z,56.88
2018-03-11T00:56:02.580Z,56.75
2018-03-11T00:58:31.889Z,56.68
2018-03-11T01:01:00.950Z,56.41
2018-03-11T01:03:30.101Z,56.36
2018-03-11T01:05:59.076Z,56.13
2018-03-11T01:08:28.447Z,55.87
2018-03-11T01:10:57.462Z,55.85
2018-03-11T01:13:26.376Z,55.66
2018-03-11T01:15:55.405Z,56.01
2018-03-11T01:18:24.368Z,56.18
2018-03-11T01:20:53.458Z,55.74
2018-03-11T01:23:22.738Z,55.47
2018-03-11T01:25:51.677Z,55.61
2018-03-11T01:28:20.830Z,55.55
2018-03-11T01:30:50.109Z,55.44
2018-03-11T01:33:19.098Z,55.42
2018-03-11T01:35:48.103Z,54.97
2018-03-11T01:38:17.201Z,54.85
2018-03-11T01:40:46.532Z,54.59
2018-03-11T01:43:17.090Z,54.49
2018-03-11T01:45:46.372Z,54.44
2018-03-11T01:48:15.683Z,53.67
2018-03-11T01:50:44.636Z,53.26
2018-03-11T01:53:13.869Z,52.49
2018-03-11T01:55:42.848Z,52.09
2018-03-11T01:58:12.322Z,50.99
2018-03-11T02:00:41.224Z,50.70
2018-03-11T02:03:10.301Z,50.37
2018-03-11T02:05:39.208Z,49.44
2018-03-11T02:08:09.193Z,49.11
2018-03-11T02:10:38.352Z,48.48
2018-03-11T02:13:07.498Z,48.06
2018-03-11T02:15:36.379Z,48.00
2018-03-11T02:18:05.264Z,48.02
2018-03-11T02:20:34.504Z,47.15
2018-03-11T02:23:03.656Z,46.99
2018-03-11T02:25:32.742Z,46.07
2018-03-11T02:28:01.729Z,46.18
2018-03-11T02:30:30.852Z,45.58
2018-03-11T02:32:59.813Z,44.60
2018-03-11T02:35:28.923Z,44.46
2018-03-11T02:37:57.909Z,44.27
2018-03-11T02:40:26.907Z,44.54
2018-03-11T02:42:56.103Z,43.83
2018-03-11T02:45:25.507Z,43.09
2018-03-11T02:47:54.331Z,43.12
2018-03-11T02:50:29.119Z,42.72
2018-03-11T02:52:58.427Z,42.69
2018-03-11T02:55:27.582Z,42.96
2018-03-11T02:57:57.474Z,41.68
2018-03-11T03:00:26.792Z,41.58
2018-03-11T03:02:56.098Z,42.05
2018-03-11T03:05:25.182Z,40.74
2018-03-11T03:07:54.605Z,40.99
2018-03-11T03:10:23.592Z,40.23
2018-03-11T03:12:52.770Z,40.99
2018-03-11T03:15:22.193Z,40.21
2018-03-11T03:17:51.308Z,40.10
2018-03-11T03:20:20.828Z,40.70
2018-03-11T03:22:49.622Z,39.08
2018-03-11T03:25:18.652Z,39.24
2018-03-11T03:27:47.569Z,39.37
2018-03-11T03:30:16.531Z,39.50
2018-03-11T03:32:45.548Z,38.74
2018-03-11T03:35:14.631Z,38.66
2018-03-11T03:37:43.966Z,38.69
2018-03-11T03:40:12.938Z,38.73
2018-03-11T03:42:41.879Z,38.13
2018-03-11T03:45:10.993Z,37.90
2018-03-11T03:47:40.487Z,37.81
2018-03-11T03:50:09.250Z,37.46
2018-03-11T03:52:38.395Z,37.71
2018-03-11T03:55:07.308Z,37.35
2018-03-11T03:57:36.578Z,38.05
2018-03-11T04:00:05.833Z,36.56
2018-03-11T04:02:34.827Z,37.72
2018-03-11T04:05:04.399Z,35.96
2018-03-11T04:07:33.560Z,36.12
2018-03-11T04:10:02.991Z,37.99
2018-03-11T04:12:32.323Z,38.52
2018-03-11T04:15:01.517Z,37.24
2018-03-11T04:17:30.578Z,37.33
2018-03-11T04:19:59.753Z,37.44
2018-03-11T04:22:28.828Z,37.16
2018-03-11T04:24:57.923Z,37.16
2018-03-11T04:27:27.066Z,37.83
2018-03-11T04:29:56.063Z,36.51
2018-03-11T04:32:24.908Z,36.31
2018-03-11T04:34:54.026Z,36.89
2018-03-11T04:37:23.008Z,35.67
2018-03-11T04:39:52.019Z,36.01
2018-03-11T04:42:21.496Z,36.56
2018-03-11T04:44:50.580Z,34.91
2018-03-11T04:47:19.865Z,35.19
2018-03-11T04:49:49.272Z,33.94
2018-03-11T04:52:18.357Z,33.67
2018-03-11T04:54:47.554Z,34.54
2018-03-11T04:57:16.774Z,35.89
2018-03-11T04:59:45.766Z,34.11
2018-03-11T05:02:14.850Z,32.97
2018-03-11T05:04:44.231Z,32.53
2018-03-11T05:07:13.195Z,32.11
2018-03-11T05:09:43.514Z,32.46
2018-03-11T05:12:12.567Z,32.48
2018-03-11T05:14:41.577Z,32.79
2018-03-11T05:17:10.821Z,32.22
2018-03-11T05:19:40.131Z,31.89
2018-03-11T05:22:09.536Z,31.57
2018-03-11T05:24:38.685Z,31.98
2018-03-11T05:27:07.816Z,30.54
2018-03-11T05:29:37.111Z,31.15
2018-03-11T05:32:06.461Z,31.41
2018-03-11T05:34:35.740Z,30.24
2018-03-11T05:37:05.480Z,29.95
2018-03-11T05:39:34.812Z,30.61
2018-03-11T05:42:04.346Z,30.24
2018-03-11T05:44:33.753Z,29.93
2018-03-11T05:47:02.906Z,30.19
2018-03-11T05:49:32.165Z,29.66
2018-03-11T05:52:01.617Z,29.17
2018-03-11T05:54:30.582Z,28.29
2018-03-11T05:57:00.338Z,28.01
2018-03-11T05:59:29.828Z,27.06
2018-03-11T06:01:58.914Z,27.30
2018-03-11T06:04:27.908Z,28.37
2018-03-11T06:06:57.130Z,27.63
2018-03-11T06:09:25.972Z,27.60
2018-03-11T06:11:54.866Z,27.41
2018-03-11T06:14:23.833Z,27.15
2018-03-11T06:16:52.868Z,26.94
2018-03-11T06:19:21.868Z,26.53
2018-03-11T06:21:51.004Z,25.88
2018-03-11T06:24:19.827Z,25.69
2018-03-11T06:26:48.902Z,25.51
2018-03-11T06:29:18.046Z,25.45
2018-03-11T06:31:47.074Z,26.04
2018-03-11T06:34:16.082Z,26.95
2018-03-11T06:36:45.464Z,26.38
2018-03-11T06:39:14.857Z,26.27
2018-03-11T06:41:44.572Z,24.36
2018-03-11T06:44:15.330Z,24.69
2018-03-11T06:46:44.409Z,23.15
2018-03-11T06:49:14.050Z,22.93
2018-03-11T06:51:43.725Z,23.65
2018-03-11T06:54:13.592Z,24.27
2018-03-11T06:56:42.810Z,25.45
2018-03-11T06:59:12.443Z,24.43
2018-03-11T07:01:41.934Z,23.38
2018-03-11T07:04:11.208Z,24.09
2018-03-11T07:06:40.452Z,23.99
2018-03-11T07:09:09.666Z,24.27
2018-03-11T07:11:38.740Z,23.46
2018-03-11T07:14:07.937Z,24.96
2018-03-11T07:16:37.258Z,23.15
2018-03-11T07:19:06.191Z,24.90
2018-03-11T07:21:35.712Z,24.83
2018-03-11T07:24:04.893Z,25.24
2018-03-11T07:26:34.074Z,25.05
2018-03-11T07:29:03.292Z,24.33
2018-03-11T07:31:32.950Z,24.26
2018-03-11T07:34:02.842Z,24.59
2018-03-11T07:36:32.203Z,24.74
2018-03-11T07:39:01.191Z,24.18
2018-03-11T07:41:30.424Z,24.28
2018-03-11T07:43:59.673Z,23.65
2018-03-11T07:46:28.988Z,23.95
2018-03-11T07:48:58.149Z,22.57
2018-03-11T07:51:27.347Z,22.09
2018-03-11T07:53:56.494Z,23.12
2018-03-11T07:56:25.740Z,22.93
2018-03-11T07:58:54.744Z,22.78
2018-03-11T08:01:24.076Z,22.81
2018-03-11T08:03:53.307Z,22.17
2018-03-11T08:06:22.616Z,21.52
2018-03-11T08:08:55.700Z,21.56
2018-03-11T08:11:25.597Z,21.72
2018-03-11T08:13:56.610Z,21.12
2018-03-11T08:16:27.576Z,21.72
2018-03-11T08:18:57.570Z,21.27
2018-03-11T08:21:27.877Z,21.44
2018-03-11T08:23:59.563Z,21.93
2018-03-11T08:26:28.515Z,21.14
2018-03-11T08:28:57.813Z,21.58
2018-03-11T08:31:26.652Z,22.26
2018-03-11T08:33:55.612Z,22.04
2018-03-11T08:36:24.798Z,22.93
2018-03-11T08:38:53.911Z,22.50
2018-03-11T08:41:22.986Z,22.96
2018-03-11T08:43:52.239Z,22.23
2018-03-11T08:46:22.126Z,22.24
2018-03-11T08:48:51.292Z,22.25
2018-03-11T08:51:20.252Z,22.59
2018-03-11T08:53:49.746Z,21.19
2018-03-11T08:56:18.857Z,21.75
2018-03-11T08:58:48.284Z,21.59
2018-03-11T09:01:17.178Z,22.49
2018-03-11T09:03:46.290Z,22.12
2018-03-11T09:06:15.622Z,22.21
2018-03-11T09:08:44.978Z,22.38
2018-03-11T09:11:14.039Z,22.18
2018-03-11T09:13:43.105Z,21.95
2018-03-11T09:16:12.578Z,22.46
2018-03-11T09:18:41.539Z,22.54
2018-03-11T09:21:10.450Z,22.05
2018-03-11T09:23:39.821Z,21.92
2018-03-11T09:26:08.949Z,31.73
2018-03-11T09:32:45.602Z,41.41
2018-03-11T09:35:14.888Z,41.67
2018-03-11T09:37:59.289Z,42.84
2018-03-11T09:40:28.729Z,42.88
2018-03-11T09:42:58.223Z,42.48
2018-03-11T09:45:27.566Z,42.24
2018-03-11T09:47:56.994Z,41.93
2018-03-11T09:50:26.678Z,41.82
2018-03-11T09:52:56.304Z,41.56
2018-03-11T09:55:25.582Z,41.36
2018-03-11T09:57:54.844Z,41.21
2018-03-11T10:00:24.306Z,41.02
2018-03-11T10:02:53.397Z,41.01
2018-03-11T10:05:22.357Z,40.78
2018-03-11T10:07:51.656Z,40.73
2018-03-11T10:10:21.182Z,40.50
2018-03-11T10:12:50.868Z,40.16
2018-03-11T10:15:20.246Z,40.33
2018-03-11T10:17:49.389Z,40.55
2018-03-11T10:20:18.838Z,40.85
2018-03-11T10:22:48.196Z,40.91
2018-03-11T10:25:17.590Z,41.31
2018-03-11T10:27:46.955Z,41.54
2018-03-11T10:30:16.461Z,41.71
2018-03-11T10:32:45.699Z,41.89
2018-03-11T10:35:14.687Z,42.11
2018-03-11T10:37:43.999Z,42.15
2018-03-11T10:40:14.192Z,42.24
2018-03-11T10:42:43.682Z,42.32
2018-03-11T10:45:12.881Z,42.41
2018-03-11T10:47:42.332Z,42.46
2018-03-11T10:50:11.602Z,42.52
2018-03-11T10:52:40.718Z,42.56
2018-03-11T10:55:09.897Z,42.59
2018-03-11T10:57:39.351Z,42.63
2018-03-11T11:00:08.696Z,42.70
2018-03-11T11:02:38.043Z,42.71
2018-03-11T11:05:07.292Z,42.74
2018-03-11T11:07:36.672Z,42.78
2018-03-11T11:10:05.952Z,42.82
2018-03-11T11:12:34.982Z,42.85
2018-03-11T11:15:04.212Z,42.90
2018-03-11T11:17:33.277Z,42.92
2018-03-11T11:20:02.706Z,42.93
2018-03-11T11:22:31.971Z,42.93
2018-03-11T11:25:01.010Z,42.99
2018-03-11T11:27:30.708Z,42.99
2018-03-11T11:29:59.958Z,43.00
2018-03-11T11:32:29.176Z,43.02
2018-03-11T11:34:58.206Z,43.04
2018-03-11T11:37:28.239Z,43.07
2018-03-11T11:39:57.323Z,43.08
2018-03-11T11:42:26.479Z,43.12
2018-03-11T11:44:55.967Z,43.11
2018-03-11T11:47:25.496Z,43.14
2018-03-11T11:49:55.077Z,43.14
2018-03-11T11:52:24.404Z,43.12
2018-03-11T11:54:53.526Z,43.18
2018-03-11T11:57:23.880Z,43.13
2018-03-11T11:59:53.154Z,43.16
2018-03-11T12:02:22.480Z,43.20
2018-03-11T12:04:51.517Z,43.21
2018-03-11T12:07:20.997Z,43.22
2018-03-11T12:09:50.176Z,43.25
2018-03-11T12:12:19.858Z,42.75
2018-03-11T12:14:49.216Z,42.81
2018-03-11T12:17:18.785Z,42.96
2018-03-11T12:19:48.076Z,43.05
2018-03-11T12:22:17.404Z,43.16
2018-03-11T12:24:46.582Z,44.48
2018-03-11T12:27:16.053Z,45.32
2018-03-11T12:29:45.934Z,46.16
2018-03-11T12:32:15.054Z,46.33
2018-03-11T12:34:44.003Z,46.43
2018-03-11T12:37:13.296Z,46.52
2018-03-11T12:39:42.816Z,46.51
2018-03-11T12:42:12.440Z,46.37
2018-03-11T12:44:41.791Z,46.08
2018-03-11T12:47:11.144Z,45.82
2018-03-11T12:49:40.471Z,45.64
2018-03-11T12:52:09.881Z,45.69
2018-03-11T12:54:39.246Z,45.67
2018-03-11T12:57:08.364Z,45.69
2018-03-11T12:59:37.959Z,45.73
2018-03-11T13:02:07.254Z,45.73
2018-03-11T13:04:37.526Z,45.80
2018-03-11T13:07:07.312Z,45.80
2018-03-11T13:09:37.283Z,45.70
2018-03-11T13:12:07.117Z,45.71
2018-03-11T13:14:38.308Z,45.73
2018-03-11T13:17:08.313Z,45.71
2018-03-11T13:19:38.174Z,45.73
2018-03-11T13:22:08.210Z,45.77
2018-03-11T13:24:37.479Z,45.83
2018-03-11T13:27:06.544Z,45.82
2018-03-11T13:29:35.665Z,45.84
2018-03-11T13:32:16.388Z,45.88
2018-03-11T13:34:45.738Z,45.93
2018-03-11T13:37:14.842Z,45.89
2018-03-11T13:39:55.842Z,45.94
2018-03-11T13:42:25.121Z,45.92
2018-03-11T13:45:05.459Z,45.93
2018-03-11T13:47:34.789Z,45.95
2018-03-11T13:50:04.140Z,45.88
2018-03-11T13:52:44.522Z,45.77
2018-03-11T13:55:13.807Z,45.89
2018-03-11T14:00:43.421Z,46.00
2018-03-11T14:03:12.491Z,46.01
2018-03-11T14:05:41.958Z,45.97
2018-03-11T14:08:11.510Z,46.02
2018-03-11T14:10:40.653Z,46.04
2018-03-11T14:13:09.848Z,46.08
2018-03-11T14:15:39.568Z,46.13
2018-03-11T14:18:08.997Z,46.12
2018-03-11T14:20:38.239Z,46.15
2018-03-11T14:23:07.347Z,46.14
2018-03-11T14:25:36.624Z,46.15
2018-03-11T14:28:07.530Z,46.14
2018-03-11T14:30:36.880Z,46.21
2018-03-11T14:33:06.017Z,46.20
2018-03-11T14:35:35.635Z,46.07
2018-03-11T14:38:05.034Z,46.15
2018-03-11T14:40:35.733Z,46.19
2018-03-11T14:43:05.224Z,46.23
2018-03-11T14:45:34.571Z,46.21
2018-03-11T14:48:04.133Z,46.20
2018-03-11T14:50:33.093Z,46.21
2018-03-11T14:53:02.192Z,46.20
2018-03-11T14:55:31.373Z,46.20
2018-03-11T14:58:00.556Z,46.22
2018-03-11T15:00:30.065Z,46.20
2018-03-11T15:02:59.181Z,46.19
2018-03-11T15:05:28.690Z,46.22
2018-03-11T15:07:58.104Z,46.21
2018-03-11T15:10:27.360Z,46.23
2018-03-11T15:12:56.736Z,46.17
2018-03-11T15:15:25.825Z,46.22
2018-03-11T15:17:55.738Z,46.13
2018-03-11T15:20:25.351Z,46.16
2018-03-11T15:22:54.671Z,46.20
2018-03-11T15:25:24.323Z,46.18
2018-03-11T15:27:55.578Z,46.17
2018-03-11T15:30:25.271Z,46.17
2018-03-11T15:32:54.831Z,46.17
2018-03-11T15:35:25.103Z,46.14
2018-03-11T15:37:55.495Z,46.13
2018-03-11T15:40:24.918Z,46.13
2018-03-11T15:42:54.387Z,46.12
2018-03-11T15:45:23.702Z,46.10
2018-03-11T15:47:53.032Z,46.10
2018-03-11T15:50:22.298Z,45.93
2018-03-11T15:52:51.776Z,45.95
2018-03-11T15:55:20.955Z,45.98
2018-03-11T15:57:49.957Z,46.01
2018-03-11T16:00:19.267Z,45.92
2018-03-11T16:02:48.570Z,45.91
2018-03-11T16:05:18.183Z,45.90
2018-03-11T16:07:47.401Z,45.91
2018-03-11T16:10:16.631Z,45.93
2018-03-11T16:12:45.752Z,45.96
2018-03-11T16:15:14.789Z,45.93
2018-03-11T16:17:43.907Z,45.94
2018-03-11T16:20:12.908Z,45.91
2018-03-11T16:22:42.046Z,45.90
2018-03-11T16:25:11.498Z,45.88
2018-03-11T16:27:40.950Z,45.88
2018-03-11T16:30:10.109Z,45.87
2018-03-11T16:32:40.412Z,45.87
2018-03-11T16:35:09.710Z,45.89
2018-03-11T16:37:40.754Z,45.86
2018-03-11T16:40:11.259Z,45.86
2018-03-11T16:42:41.454Z,45.87
2018-03-11T16:45:12.071Z,45.85
2018-03-11T16:47:44.035Z,45.86
2018-03-11T16:50:13.227Z,45.87
2018-03-11T16:52:42.653Z,45.85
2018-03-11T16:55:11.880Z,45.84
2018-03-11T16:57:41.349Z,45.83
2018-03-11T17:00:10.864Z,45.85
2018-03-11T17:02:40.011Z,45.84
2018-03-11T17:05:09.029Z,45.86
2018-03-11T17:07:38.084Z,45.82
2018-03-11T17:10:06.933Z,45.85
2018-03-11T17:12:36.179Z,45.85
2018-03-11T17:15:05.494Z,45.74
2018-03-11T17:17:34.985Z,45.71
2018-03-11T17:20:04.161Z,44.58
2018-03-11T17:22:33.337Z,43.45
2018-03-11T17:25:02.817Z,42.27
2018-03-11T17:27:32.080Z,40.93
2018-03-11T17:30:01.217Z,39.94
2018-03-11T17:32:30.756Z,38.82
2018-03-11T17:34:59.932Z,37.80
2018-03-11T17:37:28.979Z,36.98
2018-03-11T17:39:59.397Z,35.93
2018-03-11T17:42:29.288Z,35.53
2018-03-11T17:44:58.775Z,38.00
2018-03-11T17:47:29.611Z,37.91
2018-03-11T17:49:59.109Z,37.17
2018-03-11T17:52:28.174Z,36.33
2018-03-11T17:54:58.075Z,35.43
2018-03-11T17:57:27.215Z,34.75
2018-03-11T17:59:56.288Z,34.22
2018-03-11T18:02:25.739Z,34.08
2018-03-11T18:04:55.028Z,34.74
2018-03-11T18:10:17.705Z,35.63
2018-03-11T18:12:47.090Z,34.79
2018-03-11T18:15:16.234Z,36.86
2018-03-11T18:17:45.191Z,37.43
2018-03-11T18:20:14.212Z,36.30
2018-03-11T18:22:43.429Z,36.88
2018-03-11T18:25:12.590Z,39.05
2018-03-11T18:27:41.762Z,37.83
2018-03-11T18:30:11.055Z,37.28
2018-03-11T18:32:41.841Z,39.54
2018-03-11T18:35:12.162Z,38.35
2018-03-11T18:37:42.053Z,37.22
2018-03-11T18:40:11.750Z,39.52
2018-03-11T18:42:42.001Z,39.26
2018-03-11T18:45:11.115Z,37.97
2018-03-11T18:47:40.340Z,39.34
2018-03-11T18:50:09.459Z,39.94
2018-03-11T18:52:38.765Z,38.60
2018-03-11T18:55:08.325Z,38.94
2018-03-11T18:57:37.661Z,40.84
2018-03-11T19:00:07.149Z,39.21
2018-03-11T19:02:36.581Z,38.45
2018-03-11T19:05:05.796Z,40.70
2018-03-11T19:07:35.083Z,40.13
2018-03-11T19:10:04.488Z,38.65
2018-03-11T19:12:33.707Z,40.16
2018-03-11T19:15:02.940Z,41.48
2018-03-11T19:17:32.047Z,39.82
2018-03-11T19:20:01.496Z,39.29
2018-03-11T19:22:30.448Z,41.45
2018-03-11T19:24:59.653Z,41.12
2018-03-11T19:27:28.836Z,39.53
2018-03-11T19:29:57.908Z,40.69
2018-03-11T19:32:27.065Z,42.44
2018-03-11T19:34:56.294Z,41.02
2018-03-11T19:37:25.300Z,39.59
2018-03-11T19:39:54.441Z,42.12
2018-03-11T19:42:23.638Z,42.76
2018-03-11T19:44:52.999Z,41.02
2018-03-11T19:47:22.420Z,40.67
2018-03-11T19:49:51.521Z,43.09
2018-03-11T19:52:20.708Z,42.55
2018-03-11T19:54:49.927Z,40.95
2018-03-11T19:57:19.815Z,41.94
2018-03-11T19:59:49.107Z,43.96
2018-03-11T20:02:18.255Z,42.80
2018-03-11T20:04:47.805Z,41.08
2018-03-11T20:07:17.191Z,42.54
2018-03-11T20:09:46.137Z,44.62
2018-03-11T20:12:15.750Z,45.64
2018-03-11T20:14:44.917Z,46.44
2018-03-11T20:17:14.369Z,46.96
2018-03-11T20:19:43.379Z,47.22
2018-03-11T20:22:12.766Z,45.33
2018-03-11T20:24:41.668Z,42.96
2018-03-11T20:27:10.893Z,44.26
2018-03-11T20:29:40.182Z,46.13
2018-03-11T20:32:09.631Z,45.90
2018-03-11T20:34:38.959Z,47.51
2018-03-11T20:37:08.257Z,47.25
2018-03-11T20:39:37.715Z,45.59
2018-03-11T20:42:07.271Z,44.29
2018-03-11T20:44:36.329Z,45.80
2018-03-11T20:47:05.585Z,47.76
2018-03-11T20:49:34.737Z,48.62
2018-03-11T20:52:04.356Z,48.18
2018-03-11T20:54:33.628Z,47.58
2018-03-11T20:57:02.923Z,46.02
2018-03-11T20:59:32.403Z,44.66
2018-03-11T21:02:02.022Z,46.17
2018-03-11T21:04:31.336Z,47.64
2018-03-11T21:07:00.860Z,48.61
2018-03-11T21:09:30.093Z,48.35
2018-03-11T21:11:59.539Z,47.71
2018-03-11T21:14:29.676Z,46.12
2018-03-11T21:16:58.938Z,45.11
2018-03-11T21:19:27.909Z,46.72
2018-03-11T21:21:57.286Z,48.56
2018-03-11T21:24:26.640Z,48.92
2018-03-11T21:26:55.865Z,48.55
2018-03-11T21:29:25.314Z,48.14
2018-03-11T21:31:54.561Z,46.64
2018-03-11T21:34:24.017Z,44.96
2018-03-11T21:36:53.243Z,46.84
2018-03-11T21:39:22.406Z,48.27
2018-03-11T21:41:51.831Z,49.36
2018-03-11T21:44:21.205Z,49.05
2018-03-11T21:46:50.702Z,48.53
2018-03-11T21:49:20.530Z,47.15
2018-03-11T21:51:49.914Z,45.55
2018-03-11T21:54:19.237Z,46.62
2018-03-11T21:56:48.672Z,48.36
2018-03-11T21:59:18.001Z,49.60
2018-03-11T22:01:47.369Z,49.40
2018-03-11T22:04:16.957Z,48.85
2018-03-11T22:06:46.063Z,47.94
2018-03-11T22:09:15.287Z,46.05
2018-03-11T22:11:44.599Z,45.62
2018-03-11T22:14:13.709Z,47.56
2018-03-11T22:16:42.916Z,49.12
2018-03-11T22:19:12.357Z,49.58
2018-03-11T22:21:41.680Z,49.32
2018-03-11T22:24:10.871Z,48.85
2018-03-11T22:26:40.011Z,47.57
2018-03-11T22:29:09.059Z,45.90
2018-03-11T22:31:38.291Z,46.60
2018-03-11T22:34:07.735Z,48.17
2018-03-11T22:36:36.890Z,49.70
2018-03-11T22:39:06.328Z,50.05
2018-03-11T22:41:35.566Z,49.33
2018-03-11T22:44:04.728Z,48.88
2018-03-11T22:46:33.916Z,47.80
2018-03-11T22:49:03.355Z,46.22
2018-03-11T22:51:32.731Z,47.03
2018-03-11T22:54:01.945Z,48.49
2018-03-11T22:56:31.281Z,50.16
2018-03-11T22:59:00.473Z,50.07
2018-03-11T23:01:29.902Z,49.37
2018-03-11T23:03:59.302Z,49.04
2018-03-11T23:06:28.528Z,48.21
2018-03-11T23:08:57.931Z,46.91
2018-03-11T23:11:27.229Z,46.30
2018-03-11T23:13:56.222Z,48.42
2018-03-11T23:16:25.482Z,50.04
2018-03-11T23:19:06.235Z,50.34
2018-03-11T23:21:35.578Z,49.87
2018-03-11T23:24:05.043Z,49.36
2018-03-11T23:26:34.434Z,49.06
2018-03-11T23:29:03.786Z,47.94
2018-03-11T23:31:33.430Z,46.22
2018-03-11T23:34:02.330Z,47.27
2018-03-11T23:36:31.845Z,48.89
2018-03-11T23:39:01.088Z,50.62
2018-03-11T23:41:30.283Z,50.59
2018-03-11T23:43:59.336Z,49.85
2018-03-11T23:46:28.524Z,49.41
2018-03-11T23:48:58.004Z,49.10
2018-03-11T23:51:27.355Z,48.43
2018-03-11T23:53:56.831Z,46.87
2018-03-11T23:56:26.066Z,46.39
2018-03-11T23:58:55.303Z,48.19
